sensor_id;sensor_type;location;lat;lon;timestamp;pressure;altitude;pressure_sealevel;temperature;humidity
38806;BME280;25635;51.146;17.162;2023-02-14T08:00:33;102116.64;;;3.89;81.89
38806;BME280;25635;51.146;17.162;2023-02-14T08:02:59;102120.45;;;3.90;81.73
38806;BME280;25635;51.146;17.162;2023-02-14T08:05:25;102120.89;;;3.92;81.87
38806;BME280;25635;51.146;17.162;2023-02-14T08:07:52;102119.28;;;3.94;81.86
38806;BME280;25635;51.146;17.162;2023-02-14T08:10:18;102125.85;;;3.98;81.84
38806;BME280;25635;51.146;17.162;2023-02-14T08:12:44;102128.74;;;4.00;81.57
38806;BME280;25635;51.146;17.162;2023-02-14T08:15:34;102133.00;;;4.03;81.43
38806;BME280;25635;51.146;17.162;2023-02-14T08:18:20;102131.98;;;4.03;81.38
38806;BME280;25635;51.146;17.162;2023-02-14T08:20:48;102136.50;;;4.03;81.31
38806;BME280;25635;51.146;17.162;2023-02-14T08:23:18;102138.82;;;4.05;81.22
38806;BME280;25635;51.146;17.162;2023-02-14T08:25:46;102134.98;;;4.08;81.52
38806;BME280;25635;51.146;17.162;2023-02-14T08:28:13;102139.48;;;4.11;81.06
38806;BME280;25635;51.146;17.162;2023-02-14T08:30:41;102144.38;;;4.13;81.18
38806;BME280;25635;51.146;17.162;2023-02-14T08:33:08;102143.92;;;4.17;81.47
38806;BME280;25635;51.146;17.162;2023-02-14T08:35:35;102140.27;;;4.20;81.41
38806;BME280;25635;51.146;17.162;2023-02-14T08:38:02;102141.42;;;4.23;81.17
38806;BME280;25635;51.146;17.162;2023-02-14T08:40:28;102140.91;;;4.26;81.33
38806;BME280;25635;51.146;17.162;2023-02-14T08:42:55;102140.02;;;4.30;80.95
38806;BME280;25635;51.146;17.162;2023-02-14T08:45:21;102142.11;;;4.34;81.38
38806;BME280;25635;51.146;17.162;2023-02-14T08:47:48;102141.27;;;4.38;80.59
38806;BME280;25635;51.146;17.162;2023-02-14T08:50:16;102147.33;;;4.41;80.90
38806;BME280;25635;51.146;17.162;2023-02-14T08:52:43;102149.23;;;4.45;80.84
38806;BME280;25635;51.146;17.162;2023-02-14T08:55:11;102148.80;;;4.47;80.43
38806;BME280;25635;51.146;17.162;2023-02-14T08:57:37;102147.44;;;4.48;79.97
38806;BME280;25635;51.146;17.162;2023-02-14T09:00:08;102139.68;;;4.48;80.45
38806;BME280;25635;51.146;17.162;2023-02-14T09:02:35;102144.30;;;4.51;80.60
38806;BME280;25635;51.146;17.162;2023-02-14T09:05:01;102147.29;;;4.55;80.28
38806;BME280;25635;51.146;17.162;2023-02-14T09:07:27;102145.18;;;4.58;80.62
38806;BME280;25635;51.146;17.162;2023-02-14T09:09:53;102146.45;;;4.63;80.43
38806;BME280;25635;51.146;17.162;2023-02-14T09:12:20;102151.73;;;4.65;80.26
38806;BME280;25635;51.146;17.162;2023-02-14T09:14:46;102158.23;;;4.67;80.05
38806;BME280;25635;51.146;17.162;2023-02-14T09:17:13;102155.35;;;4.69;80.20
38806;BME280;25635;51.146;17.162;2023-02-14T09:19:41;102153.40;;;4.71;79.62
38806;BME280;25635;51.146;17.162;2023-02-14T09:22:08;102155.34;;;4.72;79.84
38806;BME280;25635;51.146;17.162;2023-02-14T09:24:36;102151.17;;;4.75;79.92
38806;BME280;25635;51.146;17.162;2023-02-14T09:27:03;102150.66;;;4.79;80.07
38806;BME280;25635;51.146;17.162;2023-02-14T09:29:30;102155.91;;;4.84;79.92
38806;BME280;25635;51.146;17.162;2023-02-14T09:31:58;102155.19;;;4.87;79.89
38806;BME280;25635;51.146;17.162;2023-02-14T09:34:26;102157.39;;;4.90;80.02
38806;BME280;25635;51.146;17.162;2023-02-14T09:37:12;102159.33;;;4.95;80.08
38806;BME280;25635;51.146;17.162;2023-02-14T09:39:39;102163.23;;;5.01;80.41
38806;BME280;25635;51.146;17.162;2023-02-14T09:44:41;102164.71;;;5.06;78.97
38806;BME280;25635;51.146;17.162;2023-02-14T09:47:22;102166.89;;;5.09;79.26
38806;BME280;25635;51.146;17.162;2023-02-14T09:49:57;102163.01;;;5.11;78.97
38806;BME280;25635;51.146;17.162;2023-02-14T09:52:26;102163.14;;;5.14;79.41
38806;BME280;25635;51.146;17.162;2023-02-14T09:54:57;102161.10;;;5.18;79.27
38806;BME280;25635;51.146;17.162;2023-02-14T10:00:17;102160.54;;;5.25;78.59
38806;BME280;25635;51.146;17.162;2023-02-14T10:05:40;102161.73;;;5.28;78.16
38806;BME280;25635;51.146;17.162;2023-02-14T10:08:16;102157.45;;;5.30;78.37
38806;BME280;25635;51.146;17.162;2023-02-14T10:10:52;102159.77;;;5.31;78.05
38806;BME280;25635;51.146;17.162;2023-02-14T10:13:54;102161.80;;;5.30;78.23
38806;BME280;25635;51.146;17.162;2023-02-14T10:16:25;102152.39;;;5.32;78.30
38806;BME280;25635;51.146;17.162;2023-02-14T10:19:01;102155.41;;;5.34;78.17
38806;BME280;25635;51.146;17.162;2023-02-14T10:24:22;102154.27;;;5.32;77.31
38806;BME280;25635;51.146;17.162;2023-02-14T10:26:52;102152.48;;;5.31;77.42
38806;BME280;25635;51.146;17.162;2023-02-14T10:29:22;102150.81;;;5.32;77.47
38806;BME280;25635;51.146;17.162;2023-02-14T10:31:55;102152.48;;;5.35;78.20
38806;BME280;25635;51.146;17.162;2023-02-14T10:36:56;102141.62;;;5.43;78.05
38806;BME280;25635;51.146;17.162;2023-02-14T10:53:12;102134.34;;;5.63;77.28
38806;BME280;25635;51.146;17.162;2023-02-14T10:55:50;102137.02;;;5.64;77.40
38806;BME280;25635;51.146;17.162;2023-02-14T10:58:21;102130.73;;;5.67;77.35
38806;BME280;25635;51.146;17.162;2023-02-14T11:01:02;102131.28;;;5.72;77.39
38806;BME280;25635;51.146;17.162;2023-02-14T11:03:31;102131.39;;;5.75;76.44
38806;BME280;25635;51.146;17.162;2023-02-14T11:05:59;102135.25;;;5.76;76.05
38806;BME280;25635;51.146;17.162;2023-02-14T11:08:30;102131.20;;;5.75;75.53
38806;BME280;25635;51.146;17.162;2023-02-14T11:11:09;102127.81;;;5.72;76.22
38806;BME280;25635;51.146;17.162;2023-02-14T11:13:38;102131.88;;;5.74;76.44
38806;BME280;25635;51.146;17.162;2023-02-14T11:16:07;102129.30;;;5.75;76.12
38806;BME280;25635;51.146;17.162;2023-02-14T11:18:36;102123.36;;;5.78;76.52
38806;BME280;25635;51.146;17.162;2023-02-14T11:21:15;102122.56;;;5.83;76.79
38806;BME280;25635;51.146;17.162;2023-02-14T11:23:45;102117.91;;;5.88;76.00
38806;BME280;25635;51.146;17.162;2023-02-14T11:26:24;102121.80;;;5.94;76.79
38806;BME280;25635;51.146;17.162;2023-02-14T11:29:00;102117.78;;;6.01;76.05
38806;BME280;25635;51.146;17.162;2023-02-14T11:33:55;102107.44;;;6.06;76.14
38806;BME280;25635;51.146;17.162;2023-02-14T11:36:23;102107.05;;;6.14;76.78
38806;BME280;25635;51.146;17.162;2023-02-14T11:38:57;102107.27;;;6.19;75.32
38806;BME280;25635;51.146;17.162;2023-02-14T11:41:26;102104.46;;;6.18;74.97
38806;BME280;25635;51.146;17.162;2023-02-14T11:44:10;102094.95;;;6.14;74.45
38806;BME280;25635;51.146;17.162;2023-02-14T11:46:39;102096.60;;;6.12;75.51
38806;BME280;25635;51.146;17.162;2023-02-14T11:49:22;102100.27;;;6.17;75.73
38806;BME280;25635;51.146;17.162;2023-02-14T11:51:49;102095.10;;;6.26;76.08
38806;BME280;25635;51.146;17.162;2023-02-14T11:54:46;102084.98;;;6.34;75.66
38806;BME280;25635;51.146;17.162;2023-02-14T11:57:23;102087.58;;;6.42;75.19
38806;BME280;25635;51.146;17.162;2023-02-14T11:59:55;102088.21;;;6.50;74.49
38806;BME280;25635;51.146;17.162;2023-02-14T12:02:35;102087.94;;;6.47;73.74
38806;BME280;25635;51.146;17.162;2023-02-14T12:08:28;102083.36;;;6.45;73.34
38806;BME280;25635;51.146;17.162;2023-02-14T12:11:05;102085.06;;;6.44;73.69
38806;BME280;25635;51.146;17.162;2023-02-14T12:13:31;102086.13;;;6.45;73.15
38806;BME280;25635;51.146;17.162;2023-02-14T12:15:58;102082.77;;;6.44;73.71
38806;BME280;25635;51.146;17.162;2023-02-14T12:29:33;102077.17;;;6.56;72.66
38806;BME280;25635;51.146;17.162;2023-02-14T12:32:33;102073.37;;;6.56;72.57
38806;BME280;25635;51.146;17.162;2023-02-14T12:43:56;102066.92;;;6.60;72.63
38806;BME280;25635;51.146;17.162;2023-02-14T12:46:39;102064.27;;;6.63;73.43
38806;BME280;25635;51.146;17.162;2023-02-14T12:49:27;102061.20;;;6.68;72.94
38806;BME280;25635;51.146;17.162;2023-02-14T12:52:26;102055.72;;;6.66;72.30
38806;BME280;25635;51.146;17.162;2023-02-14T13:06:46;102056.29;;;6.35;72.20
38806;BME280;25635;51.146;17.162;2023-02-14T13:12:13;102051.20;;;6.47;73.22
38806;BME280;25635;51.146;17.162;2023-02-14T13:14:59;102044.60;;;6.52;72.57
38806;BME280;25635;51.146;17.162;2023-02-14T13:22:34;102046.20;;;6.57;72.90
38806;BME280;25635;51.146;17.162;2023-02-14T13:25:23;102046.33;;;6.61;72.94
38806;BME280;25635;51.146;17.162;2023-02-14T13:28:03;102047.35;;;6.65;72.75
38806;BME280;25635;51.146;17.162;2023-02-14T13:30:33;102048.40;;;6.65;72.55
38806;BME280;25635;51.146;17.162;2023-02-14T13:33:47;102042.07;;;6.62;72.19
38806;BME280;25635;51.146;17.162;2023-02-14T13:35:48;102037.57;;;6.58;71.38
38806;BME280;25635;51.146;17.162;2023-02-14T13:38:16;102036.71;;;6.54;71.79
38806;BME280;25635;51.146;17.162;2023-02-14T13:40:44;102038.48;;;6.50;71.50
38806;BME280;25635;51.146;17.162;2023-02-14T13:43:10;102035.59;;;6.47;72.09
38806;BME280;25635;51.146;17.162;2023-02-14T13:45:51;102035.84;;;6.45;71.26
38806;BME280;25635;51.146;17.162;2023-02-14T13:48:22;102040.17;;;6.40;71.80
38806;BME280;25635;51.146;17.162;2023-02-14T13:50:58;102042.57;;;6.39;72.40
38806;BME280;25635;51.146;17.162;2023-02-14T13:55:57;102041.61;;;6.46;72.37
38806;BME280;25635;51.146;17.162;2023-02-14T13:58:24;102047.17;;;6.37;70.86
38806;BME280;25635;51.146;17.162;2023-02-14T14:00:51;102047.45;;;6.26;71.38
38806;BME280;25635;51.146;17.162;2023-02-14T14:06:06;102045.17;;;6.21;72.68
38806;BME280;25635;51.146;17.162;2023-02-14T14:08:42;102046.63;;;6.23;72.23
38806;BME280;25635;51.146;17.162;2023-02-14T14:16:56;102043.55;;;6.28;72.82
38806;BME280;25635;51.146;17.162;2023-02-14T14:22:10;102042.73;;;6.30;72.38
38806;BME280;25635;51.146;17.162;2023-02-14T14:24:41;102041.05;;;6.31;72.19
38806;BME280;25635;51.146;17.162;2023-02-14T14:29:46;102040.92;;;6.19;72.11
38806;BME280;25635;51.146;17.162;2023-02-14T14:32:31;102037.19;;;6.17;71.83
38806;BME280;25635;51.146;17.162;2023-02-14T14:35:22;102037.78;;;6.10;71.32
38806;BME280;25635;51.146;17.162;2023-02-14T14:40:22;102037.73;;;6.04;71.89
38806;BME280;25635;51.146;17.162;2023-02-14T14:42:52;102043.05;;;5.98;71.46
38806;BME280;25635;51.146;17.162;2023-02-14T14:45:24;102042.52;;;5.90;71.17
38806;BME280;25635;51.146;17.162;2023-02-14T14:47:53;102043.59;;;5.87;71.96
38806;BME280;25635;51.146;17.162;2023-02-14T14:50:26;102043.85;;;5.89;72.15
38806;BME280;25635;51.146;17.162;2023-02-14T14:52:55;102036.64;;;5.91;72.19
38806;BME280;25635;51.146;17.162;2023-02-14T14:55:24;102035.48;;;5.92;72.10
38806;BME280;25635;51.146;17.162;2023-02-14T14:58:00;102034.44;;;5.92;72.00
38806;BME280;25635;51.146;17.162;2023-02-14T15:00:32;102032.73;;;5.92;71.48
38806;BME280;25635;51.146;17.162;2023-02-14T15:05:34;102026.19;;;5.84;71.45
38806;BME280;25635;51.146;17.162;2023-02-14T15:11:02;102021.16;;;5.76;71.35
38806;BME280;25635;51.146;17.162;2023-02-14T15:13:40;102015.70;;;5.69;71.03
38806;BME280;25635;51.146;17.162;2023-02-14T15:18:48;102017.12;;;5.58;71.56
38806;BME280;25635;51.146;17.162;2023-02-14T15:21:16;102018.90;;;5.54;71.66
38806;BME280;25635;51.146;17.162;2023-02-14T15:23:44;102018.23;;;5.51;71.68
38806;BME280;25635;51.146;17.162;2023-02-14T15:26:31;102019.20;;;5.45;71.35
38806;BME280;25635;51.146;17.162;2023-02-14T15:29:05;102019.83;;;5.39;71.57
38806;BME280;25635;51.146;17.162;2023-02-14T15:31:37;102015.23;;;5.37;71.62
38806;BME280;25635;51.146;17.162;2023-02-14T15:34:05;102019.40;;;5.37;71.94
38806;BME280;25635;51.146;17.162;2023-02-14T15:36:33;102020.52;;;5.35;71.52
38806;BME280;25635;51.146;17.162;2023-02-14T15:39:04;102014.29;;;5.31;71.56
38806;BME280;25635;51.146;17.162;2023-02-14T15:41:31;102011.61;;;5.29;71.86
38806;BME280;25635;51.146;17.162;2023-02-14T15:43:58;102011.89;;;5.27;71.93
38806;BME280;25635;51.146;17.162;2023-02-14T15:46:36;102009.61;;;5.23;71.52
38806;BME280;25635;51.146;17.162;2023-02-14T15:49:07;102007.77;;;5.16;71.66
38806;BME280;25635;51.146;17.162;2023-02-14T15:51:34;102005.70;;;5.12;71.83
38806;BME280;25635;51.146;17.162;2023-02-14T15:54:19;102003.29;;;5.08;71.51
38806;BME280;25635;51.146;17.162;2023-02-14T15:56:49;102006.31;;;5.02;71.66
38806;BME280;25635;51.146;17.162;2023-02-14T15:59:22;102010.80;;;4.98;71.69
38806;BME280;25635;51.146;17.162;2023-02-14T16:02:03;102007.81;;;4.93;72.05
38806;BME280;25635;51.146;17.162;2023-02-14T16:04:40;102007.22;;;4.91;72.45
38806;BME280;25635;51.146;17.162;2023-02-14T16:07:26;102009.13;;;4.91;72.91
38806;BME280;25635;51.146;17.162;2023-02-14T16:10:20;102010.00;;;4.92;72.78
38806;BME280;25635;51.146;17.162;2023-02-14T16:13:55;102005.83;;;4.87;72.10
38806;BME280;25635;51.146;17.162;2023-02-14T16:15:58;102008.41;;;4.83;72.27
38806;BME280;25635;51.146;17.162;2023-02-14T16:18:34;102010.99;;;4.79;72.06
38806;BME280;25635;51.146;17.162;2023-02-14T16:21:17;102013.00;;;4.74;72.05
38806;BME280;25635;51.146;17.162;2023-02-14T16:23:46;102013.41;;;4.71;72.42
38806;BME280;25635;51.146;17.162;2023-02-14T16:26:13;102017.00;;;4.66;71.99
38806;BME280;25635;51.146;17.162;2023-02-14T16:28:39;102017.96;;;4.61;72.22
38806;BME280;25635;51.146;17.162;2023-02-14T16:31:07;102016.03;;;4.56;72.26
38806;BME280;25635;51.146;17.162;2023-02-14T16:33:39;102015.35;;;4.53;72.10
38806;BME280;25635;51.146;17.162;2023-02-14T16:36:16;102021.57;;;4.53;72.89
38806;BME280;25635;51.146;17.162;2023-02-14T16:38:45;102021.80;;;4.51;72.51
38806;BME280;25635;51.146;17.162;2023-02-14T16:41:20;102016.95;;;4.46;72.65
38806;BME280;25635;51.146;17.162;2023-02-14T16:43:47;102016.70;;;4.44;72.49
38806;BME280;25635;51.146;17.162;2023-02-14T16:46:16;102023.75;;;4.43;72.83
38806;BME280;25635;51.146;17.162;2023-02-14T16:48:42;102021.50;;;4.43;73.07
38806;BME280;25635;51.146;17.162;2023-02-14T16:51:14;102017.05;;;4.44;73.66
38806;BME280;25635;51.146;17.162;2023-02-14T16:53:41;102018.25;;;4.44;73.28
38806;BME280;25635;51.146;17.162;2023-02-14T16:56:22;102020.60;;;4.43;73.46
38806;BME280;25635;51.146;17.162;2023-02-14T16:58:52;102020.77;;;4.39;72.64
38806;BME280;25635;51.146;17.162;2023-02-14T17:01:18;102022.11;;;4.35;73.22
38806;BME280;25635;51.146;17.162;2023-02-14T17:03:44;102021.77;;;4.35;73.91
38806;BME280;25635;51.146;17.162;2023-02-14T17:06:16;102020.58;;;4.35;73.95
38806;BME280;25635;51.146;17.162;2023-02-14T17:08:45;102020.28;;;4.32;73.81
38806;BME280;25635;51.146;17.162;2023-02-14T17:11:12;102019.05;;;4.32;73.99
38806;BME280;25635;51.146;17.162;2023-02-14T17:13:40;102019.79;;;4.29;73.49
38806;BME280;25635;51.146;17.162;2023-02-14T17:16:09;102018.73;;;4.25;73.51
38806;BME280;25635;51.146;17.162;2023-02-14T17:18:38;102022.61;;;4.23;73.42
38806;BME280;25635;51.146;17.162;2023-02-14T17:21:06;102021.85;;;4.21;73.52
38806;BME280;25635;51.146;17.162;2023-02-14T17:23:32;102021.83;;;4.21;73.72
38806;BME280;25635;51.146;17.162;2023-02-14T17:25:58;102021.92;;;4.19;73.72
38806;BME280;25635;51.146;17.162;2023-02-14T17:28:24;102024.98;;;4.18;74.07
38806;BME280;25635;51.146;17.162;2023-02-14T17:30:52;102022.81;;;4.16;73.92
38806;BME280;25635;51.146;17.162;2023-02-14T17:33:18;102021.93;;;4.12;73.97
38806;BME280;25635;51.146;17.162;2023-02-14T17:35:45;102024.04;;;4.09;74.22
38806;BME280;25635;51.146;17.162;2023-02-14T17:38:11;102024.05;;;4.05;74.25
38806;BME280;25635;51.146;17.162;2023-02-14T17:40:38;102024.61;;;4.03;74.53
38806;BME280;25635;51.146;17.162;2023-02-14T17:43:04;102025.27;;;3.99;74.08
38806;BME280;25635;51.146;17.162;2023-02-14T17:45:30;102030.39;;;3.94;74.35
38806;BME280;25635;51.146;17.162;2023-02-14T17:47:56;102029.06;;;3.92;74.66
38806;BME280;25635;51.146;17.162;2023-02-14T17:50:22;102028.58;;;3.88;74.29
38806;BME280;25635;51.146;17.162;2023-02-14T17:52:54;102028.15;;;3.87;74.61
38806;BME280;25635;51.146;17.162;2023-02-14T17:55:21;102024.92;;;3.88;75.11
38806;BME280;25635;51.146;17.162;2023-02-14T17:57:48;102022.52;;;3.88;74.78
38806;BME280;25635;51.146;17.162;2023-02-14T18:00:21;102024.23;;;3.84;74.44
38806;BME280;25635;51.146;17.162;2023-02-14T18:02:48;102023.45;;;3.79;74.29
38806;BME280;25635;51.146;17.162;2023-02-14T18:05:15;102019.90;;;3.73;74.68
38806;BME280;25635;51.146;17.162;2023-02-14T18:07:42;102020.82;;;3.71;74.91
38806;BME280;25635;51.146;17.162;2023-02-14T18:10:08;102021.73;;;3.68;74.75
38806;BME280;25635;51.146;17.162;2023-02-14T18:12:34;102022.94;;;3.65;74.79
38806;BME280;25635;51.146;17.162;2023-02-14T18:15:01;102021.18;;;3.61;74.56
38806;BME280;25635;51.146;17.162;2023-02-14T18:17:27;102020.89;;;3.55;74.68
38806;BME280;25635;51.146;17.162;2023-02-14T18:19:53;102018.28;;;3.51;74.97
38806;BME280;25635;51.146;17.162;2023-02-14T18:22:19;102018.48;;;3.48;75.26
38806;BME280;25635;51.146;17.162;2023-02-14T18:24:45;102020.30;;;3.46;75.65
38806;BME280;25635;51.146;17.162;2023-02-14T18:27:11;102020.59;;;3.45;75.73
38806;BME280;25635;51.146;17.162;2023-02-14T18:29:40;102019.31;;;3.43;75.85
38806;BME280;25635;51.146;17.162;2023-02-14T18:32:06;102018.40;;;3.43;76.06
38806;BME280;25635;51.146;17.162;2023-02-14T18:34:35;102020.42;;;3.41;76.05
38806;BME280;25635;51.146;17.162;2023-02-14T18:37:02;102017.83;;;3.38;75.46
38806;BME280;25635;51.146;17.162;2023-02-14T18:39:29;102014.36;;;3.34;75.72
38806;BME280;25635;51.146;17.162;2023-02-14T18:41:55;102014.59;;;3.32;75.86
38806;BME280;25635;51.146;17.162;2023-02-14T18:44:26;102013.52;;;3.28;75.79
38806;BME280;25635;51.146;17.162;2023-02-14T18:46:53;102007.30;;;3.24;76.08
38806;BME280;25635;51.146;17.162;2023-02-14T18:49:19;102008.80;;;3.20;76.02
38806;BME280;25635;51.146;17.162;2023-02-14T18:51:45;102004.55;;;3.14;76.42
38806;BME280;25635;51.146;17.162;2023-02-14T18:54:13;102005.88;;;3.06;76.52
38806;BME280;25635;51.146;17.162;2023-02-14T18:56:39;102003.86;;;3.00;76.70
38806;BME280;25635;51.146;17.162;2023-02-14T18:59:07;101998.73;;;2.95;76.61
38806;BME280;25635;51.146;17.162;2023-02-14T19:01:36;101999.35;;;2.90;76.40
38806;BME280;25635;51.146;17.162;2023-02-14T19:04:04;102001.33;;;2.85;76.04
38806;BME280;25635;51.146;17.162;2023-02-14T19:06:32;101995.30;;;2.85;76.65
38806;BME280;25635;51.146;17.162;2023-02-14T19:08:59;101990.03;;;2.83;76.42
38806;BME280;25635;51.146;17.162;2023-02-14T19:11:28;101991.16;;;2.81;76.90
38806;BME280;25635;51.146;17.162;2023-02-14T19:13:58;101990.42;;;2.77;77.03
38806;BME280;25635;51.146;17.162;2023-02-14T19:16:28;101984.84;;;2.73;77.00
38806;BME280;25635;51.146;17.162;2023-02-14T19:18:54;101985.82;;;2.69;77.34
38806;BME280;25635;51.146;17.162;2023-02-14T19:21:23;101984.67;;;2.67;77.62
38806;BME280;25635;51.146;17.162;2023-02-14T19:23:51;101981.30;;;2.65;77.57
38806;BME280;25635;51.146;17.162;2023-02-14T19:26:20;101982.74;;;2.62;77.73
38806;BME280;25635;51.146;17.162;2023-02-14T19:28:48;101983.69;;;2.60;77.37
38806;BME280;25635;51.146;17.162;2023-02-14T19:31:15;101982.30;;;2.60;77.94
38806;BME280;25635;51.146;17.162;2023-02-14T19:33:43;101979.60;;;2.61;77.76
38806;BME280;25635;51.146;17.162;2023-02-14T19:36:12;101979.98;;;2.62;78.18
38806;BME280;25635;51.146;17.162;2023-02-14T19:38:39;101981.00;;;2.62;78.05
38806;BME280;25635;51.146;17.162;2023-02-14T19:41:20;101980.18;;;2.59;78.07
38806;BME280;25635;51.146;17.162;2023-02-14T19:43:47;101978.84;;;2.57;78.11
38806;BME280;25635;51.146;17.162;2023-02-14T19:46:16;101978.73;;;2.55;78.12
38806;BME280;25635;51.146;17.162;2023-02-14T19:48:42;101981.61;;;2.51;78.31
38806;BME280;25635;51.146;17.162;2023-02-14T19:51:19;101983.35;;;2.48;78.31
38806;BME280;25635;51.146;17.162;2023-02-14T19:53:47;101977.19;;;2.39;77.98
38806;BME280;25635;51.146;17.162;2023-02-14T19:56:20;101979.33;;;2.34;78.39
38806;BME280;25635;51.146;17.162;2023-02-14T19:58:48;101983.41;;;2.30;78.56
38806;BME280;25635;51.146;17.162;2023-02-14T20:01:28;101977.77;;;2.27;78.69
38806;BME280;25635;51.146;17.162;2023-02-14T20:03:55;101976.45;;;2.25;78.99
38806;BME280;25635;51.146;17.162;2023-02-14T20:06:23;101974.43;;;2.23;78.93
38806;BME280;25635;51.146;17.162;2023-02-14T20:08:49;101977.20;;;2.20;78.97
38806;BME280;25635;51.146;17.162;2023-02-14T20:13:49;101968.66;;;2.12;78.98
38806;BME280;25635;51.146;17.162;2023-02-14T20:16:15;101968.21;;;2.06;79.14
38806;BME280;25635;51.146;17.162;2023-02-14T20:18:41;101963.81;;;2.01;79.14
38806;BME280;25635;51.146;17.162;2023-02-14T20:21:14;101963.98;;;1.95;79.04
38806;BME280;25635;51.146;17.162;2023-02-14T20:23:41;101967.90;;;1.88;79.46
38806;BME280;25635;51.146;17.162;2023-02-14T20:26:17;101968.10;;;1.82;79.48
38806;BME280;25635;51.146;17.162;2023-02-14T20:28:43;101967.80;;;1.74;79.72
38806;BME280;25635;51.146;17.162;2023-02-14T20:31:12;101970.00;;;1.67;79.53
38806;BME280;25635;51.146;17.162;2023-02-14T20:33:38;101969.63;;;1.58;79.59
38806;BME280;25635;51.146;17.162;2023-02-14T20:36:06;101968.25;;;1.48;79.58
38806;BME280;25635;51.146;17.162;2023-02-14T20:38:33;101964.16;;;1.40;79.69
38806;BME280;25635;51.146;17.162;2023-02-14T20:41:11;101960.95;;;1.35;79.98
38806;BME280;25635;51.146;17.162;2023-02-14T20:43:38;101961.94;;;1.31;80.00
38806;BME280;25635;51.146;17.162;2023-02-14T20:46:05;101967.23;;;1.25;79.67
38806;BME280;25635;51.146;17.162;2023-02-14T20:48:32;101961.95;;;1.19;80.01
38806;BME280;25635;51.146;17.162;2023-02-14T20:51:12;101960.94;;;1.17;80.51
38806;BME280;25635;51.146;17.162;2023-02-14T20:53:39;101963.01;;;1.17;81.14
38806;BME280;25635;51.146;17.162;2023-02-14T20:56:05;101962.77;;;1.16;80.92
38806;BME280;25635;51.146;17.162;2023-02-14T20:58:33;101961.01;;;1.09;80.93
38806;BME280;25635;51.146;17.162;2023-02-14T21:01:07;101960.30;;;1.03;80.49
38806;BME280;25635;51.146;17.162;2023-02-14T21:03:34;101960.17;;;0.95;80.64
38806;BME280;25635;51.146;17.162;2023-02-14T21:06:06;101961.20;;;0.86;80.38
38806;BME280;25635;51.146;17.162;2023-02-14T21:08:34;101960.14;;;0.80;80.77
38806;BME280;25635;51.146;17.162;2023-02-14T21:11:05;101960.22;;;0.75;80.89
38806;BME280;25635;51.146;17.162;2023-02-14T21:13:32;101958.96;;;0.72;81.25
38806;BME280;25635;51.146;17.162;2023-02-14T21:18:27;101957.48;;;0.67;81.45
38806;BME280;25635;51.146;17.162;2023-02-14T21:20:53;101954.41;;;0.65;81.17
38806;BME280;25635;51.146;17.162;2023-02-14T21:23:20;101954.56;;;0.61;81.16
38806;BME280;25635;51.146;17.162;2023-02-14T21:25:47;101954.63;;;0.56;81.25
38806;BME280;25635;51.146;17.162;2023-02-14T21:28:13;101952.63;;;0.52;81.16
38806;BME280;25635;51.146;17.162;2023-02-14T21:30:39;101950.67;;;0.48;81.49
38806;BME280;25635;51.146;17.162;2023-02-14T21:33:05;101944.88;;;0.43;81.51
38806;BME280;25635;51.146;17.162;2023-02-14T21:35:34;101942.11;;;0.40;81.82
38806;BME280;25635;51.146;17.162;2023-02-14T21:38:01;101945.20;;;0.37;81.92
38806;BME280;25635;51.146;17.162;2023-02-14T21:40:27;101945.97;;;0.36;81.91
38806;BME280;25635;51.146;17.162;2023-02-14T21:42:53;101948.47;;;0.34;82.41
38806;BME280;25635;51.146;17.162;2023-02-14T21:45:19;101946.27;;;0.35;82.45
38806;BME280;25635;51.146;17.162;2023-02-14T21:48:04;101943.96;;;0.33;82.29
38806;BME280;25635;51.146;17.162;2023-02-14T21:50:48;101932.05;;;0.33;82.37
38806;BME280;25635;51.146;17.162;2023-02-14T21:53:15;101929.78;;;0.32;82.11
38806;BME280;25635;51.146;17.162;2023-02-14T21:55:41;101930.71;;;0.30;82.20
38806;BME280;25635;51.146;17.162;2023-02-14T21:58:07;101923.93;;;0.29;82.36
38806;BME280;25635;51.146;17.162;2023-02-14T22:00:34;101918.05;;;0.28;82.45
38806;BME280;25635;51.146;17.162;2023-02-14T22:03:00;101917.40;;;0.26;82.32
38806;BME280;25635;51.146;17.162;2023-02-14T22:05:26;101915.45;;;0.22;82.41
38806;BME280;25635;51.146;17.162;2023-02-14T22:07:53;101911.30;;;0.18;82.84
38806;BME280;25635;51.146;17.162;2023-02-14T22:10:19;101915.16;;;0.14;82.78
38806;BME280;25635;51.146;17.162;2023-02-14T22:12:44;101915.27;;;0.10;83.14
38806;BME280;25635;51.146;17.162;2023-02-14T22:15:11;101913.72;;;0.10;83.35
38806;BME280;25635;51.146;17.162;2023-02-14T22:17:37;101911.94;;;0.12;83.54
38806;BME280;25635;51.146;17.162;2023-02-14T22:20:04;101912.39;;;0.14;83.65
38806;BME280;25635;51.146;17.162;2023-02-14T22:22:32;101906.08;;;0.14;83.54
38806;BME280;25635;51.146;17.162;2023-02-14T22:24:59;101910.63;;;0.13;83.22
38806;BME280;25635;51.146;17.162;2023-02-14T22:27:25;101912.88;;;0.11;83.03
38806;BME280;25635;51.146;17.162;2023-02-14T22:29:51;101910.47;;;0.08;83.33
38806;BME280;25635;51.146;17.162;2023-02-14T22:32:17;101910.91;;;0.07;83.22
38806;BME280;25635;51.146;17.162;2023-02-14T22:34:43;101908.52;;;0.04;83.60
38806;BME280;25635;51.146;17.162;2023-02-14T22:37:10;101904.46;;;0.02;83.68
38806;BME280;25635;51.146;17.162;2023-02-14T22:39:36;101904.17;;;0.00;84.00
38806;BME280;25635;51.146;17.162;2023-02-14T22:42:02;101903.02;;;-0.02;83.96
38806;BME280;25635;51.146;17.162;2023-02-14T22:44:32;101902.92;;;-0.06;83.97
38806;BME280;25635;51.146;17.162;2023-02-14T22:46:58;101906.70;;;-0.09;83.85
38806;BME280;25635;51.146;17.162;2023-02-14T22:49:24;101902.56;;;-0.12;84.12
38806;BME280;25635;51.146;17.162;2023-02-14T22:51:50;101899.20;;;-0.14;84.07